Time;durP1;ratioP1;P1;durP2;ratioP2;P2;SDS_P1;SDS_P2;PMS_P1;PMS_P2;Temp;Humidity;BMP_temperature;BMP_pressure;BME280_temperature;BME280_humidity;BME280_pressure;Samples;Min_cycle;Max_cycle;Signal;HPM_P1;HPM_P2
2022/12/10 00:00:05;;;;;;;;;26.75;20.75;;;;;;;;5063049;28;52023;-55
2022/12/10 00:02:58;;;;;;;;;22.50;21.25;;;;;;;;5062837;28;51080;-57
2022/12/10 00:05:43;;;;;;;;;21.00;19.50;;;;;;;;5059889;28;51046;-57
2022/12/10 00:08:27;;;;;;;;;23.50;20.50;;;;;;;;5062335;28;51139;-57
2022/12/10 00:11:13;;;;;;;;;21.50;21.25;;;;;;;;5058345;28;51910;-57
2022/12/10 00:13:57;;;;;;;;;21.25;17.75;;;;;;;;5062354;28;51154;-56
2022/12/10 00:16:42;;;;;;;;;19.75;17.25;;;;;;;;5062393;28;51058;-58
2022/12/10 00:19:26;;;;;;;;;25.50;21.00;;;;;;;;5062033;28;51126;-57
2022/12/10 00:22:11;;;;;;;;;22.50;21.25;;;;;;;;5062584;28;51130;-57
2022/12/10 00:24:55;;;;;;;;;24.00;18.75;;;;;;;;5062456;28;51535;-55
2022/12/10 00:27:39;;;;;;;;;21.50;20.50;;;;;;;;5062304;28;51113;-56
2022/12/10 00:30:24;;;;;;;;;24.25;20.50;;;;;;;;5062013;28;51226;-56
2022/12/10 00:33:08;;;;;;;;;24.50;21.50;;;;;;;;5062142;28;51146;-56
2022/12/10 00:35:53;;;;;;;;;14.00;13.00;;;;;;;;5059799;28;51545;-55
2022/12/10 00:38:38;;;;;;;;;22.75;22.00;;;;;;;;5056188;28;51047;-57
2022/12/10 00:41:22;;;;;;;;;29.75;20.75;;;;;;;;5061296;28;51158;-58
2022/12/10 00:44:06;;;;;;;;;23.25;19.00;;;;;;;;5061768;28;51167;-55
2022/12/10 00:46:51;;;;;;;;;25.75;20.25;;;;;;;;5058824;28;51184;-57
2022/12/10 00:49:35;;;;;;;;;30.00;22.75;;;;;;;;5060632;28;51126;-56
2022/12/10 00:52:20;;;;;;;;;19.50;18.25;;;;;;;;5061764;28;51115;-56
2022/12/10 00:55:04;;;;;;;;;21.25;21.00;;;;;;;;5061062;28;51105;-57
2022/12/10 00:57:49;;;;;;;;;22.00;18.50;;;;;;;;5060554;28;51272;-57
2022/12/10 01:00:33;;;;;;;;;23.75;21.00;;;;;;;;5061817;28;51041;-57
2022/12/10 01:03:18;;;;;;;;;24.50;20.50;;;;;;;;5061556;28;50958;-55
2022/12/10 01:06:13;;;;;;;;;21.50;20.75;;;;;;;;5061590;28;51243;-57
2022/12/10 01:08:58;;;;;;;;;20.25;17.75;;;;;;;;5061274;28;51453;-58
2022/12/10 01:11:43;;;;;;;;;22.25;18.00;;;;;;;;5061248;28;51143;-55
2022/12/10 01:14:29;;;;;;;;;26.50;22.00;;;;;;;;5061476;28;51075;-56
2022/12/10 01:17:13;;;;;;;;;22.50;21.50;;;;;;;;5060281;28;51326;-57
2022/12/10 01:19:58;;;;;;;;;25.50;22.50;;;;;;;;5061216;28;51103;-58
2022/12/10 01:22:42;;;;;;;;;23.25;22.50;;;;;;;;5061091;28;51027;-56
2022/12/10 01:25:27;;;;;;;;;26.00;20.00;;;;;;;;5061382;28;51195;-57
2022/12/10 01:28:11;;;;;;;;;22.00;19.25;;;;;;;;5061019;28;51071;-56
2022/12/10 01:30:55;;;;;;;;;24.50;23.25;;;;;;;;5061227;28;51126;-57
2022/12/10 01:33:40;;;;;;;;;22.25;19.50;;;;;;;;5056976;28;51178;-56
2022/12/10 01:36:26;;;;;;;;;25.00;20.00;;;;;;;;5060852;28;51154;-56
2022/12/10 01:39:12;;;;;;;;;33.50;21.50;;;;;;;;5055723;27;51262;-58
2022/12/10 01:41:58;;;;;;;;;23.00;21.50;;;;;;;;5060562;28;51074;-57
2022/12/10 01:44:42;;;;;;;;;24.50;22.00;;;;;;;;5060705;28;51042;-56
2022/12/10 01:47:26;;;;;;;;;28.00;21.00;;;;;;;;5059454;28;51073;-54
2022/12/10 01:50:11;;;;;;;;;20.50;18.50;;;;;;;;5059916;28;51562;-55
2022/12/10 01:52:55;;;;;;;;;22.00;20.75;;;;;;;;5060327;28;51134;-56
2022/12/10 01:55:40;;;;;;;;;23.75;22.75;;;;;;;;5060872;28;51163;-57
2022/12/10 01:58:24;;;;;;;;;23.50;21.00;;;;;;;;5060334;28;51050;-54
2022/12/10 02:01:11;;;;;;;;;23.00;19.75;;;;;;;;5060338;28;51101;-57
2022/12/10 02:04:04;;;;;;;;;20.50;18.75;;;;;;;;5060197;28;51165;-57
2022/12/10 02:06:57;;;;;;;;;18.50;18.25;;;;;;;;5056006;28;51108;-57
2022/12/10 02:10:02;;;;;;;;;24.75;21.75;;;;;;;;5075033;27;51224;-57
2022/12/10 02:12:49;;;;;;;;;21.25;19.50;;;;;;;;5080474;27;51121;-57
2022/12/10 02:15:53;;;;;;;;;22.25;18.25;;;;;;;;5072116;27;51192;-56
2022/12/10 02:18:42;;;;;;;;;25.25;23.00;;;;;;;;5078408;27;51168;-58
2022/12/10 02:21:33;;;;;;;;;24.00;21.00;;;;;;;;5080843;27;51128;-56
2022/12/10 02:24:23;;;;;;;;;24.75;23.25;;;;;;;;5079887;27;51516;-58
2022/12/10 02:27:14;;;;;;;;;27.50;20.50;;;;;;;;5062533;28;51149;-56
2022/12/10 02:30:00;;;;;;;;;25.75;22.50;;;;;;;;5060092;28;51090;-57
2022/12/10 02:32:45;;;;;;;;;28.75;22.25;;;;;;;;5060084;28;51030;-57
2022/12/10 02:35:31;;;;;;;;;22.75;21.00;;;;;;;;5059514;28;51731;-55
2022/12/10 02:38:36;;;;;;;;;29.75;23.00;;;;;;;;5056300;28;51192;-57
2022/12/10 02:41:24;;;;;;;;;22.00;21.00;;;;;;;;5056432;28;51151;-57
2022/12/10 02:44:11;;;;;;;;;22.25;19.75;;;;;;;;5059636;28;51094;-56
2022/12/10 02:46:56;;;;;;;;;24.00;21.75;;;;;;;;5059947;28;51139;-55
2022/12/10 02:49:41;;;;;;;;;29.50;23.00;;;;;;;;5057097;28;51099;-56
2022/12/10 02:52:25;;;;;;;;;25.50;22.25;;;;;;;;5059499;28;51131;-57
2022/12/10 02:55:11;;;;;;;;;21.75;21.50;;;;;;;;5059645;28;51090;-57
2022/12/10 02:57:58;;;;;;;;;25.00;21.25;;;;;;;;5044799;28;51000;-58
2022/12/10 03:00:48;;;;;;;;;27.00;22.50;;;;;;;;5059383;28;51403;-53
2022/12/10 03:03:52;;;;;;;;;28.50;24.50;;;;;;;;5059487;28;51102;-57
2022/12/10 03:06:40;;;;;;;;;38.00;33.50;;;;;;;;5059209;28;51078;-57
2022/12/10 03:09:29;;;;;;;;;47.25;38.00;;;;;;;;5056793;28;51301;-53
2022/12/10 03:12:17;;;;;;;;;44.50;37.25;;;;;;;;5064438;28;51070;-57
2022/12/10 03:15:05;;;;;;;;;46.00;37.25;;;;;;;;5079545;28;51450;-56
2022/12/10 03:17:50;;;;;;;;;46.50;36.25;;;;;;;;5079585;28;51552;-58
2022/12/10 03:20:38;;;;;;;;;45.00;36.75;;;;;;;;5079429;28;51170;-57
2022/12/10 03:23:23;;;;;;;;;49.50;40.00;;;;;;;;5079771;28;51128;-57
2022/12/10 03:26:08;;;;;;;;;51.75;41.25;;;;;;;;5079262;28;51216;-56
2022/12/10 03:29:21;;;;;;;;;46.50;37.50;;;;;;;;5079421;28;51179;-57
2022/12/10 03:32:06;;;;;;;;;53.25;43.00;;;;;;;;5075933;27;51181;-57
2022/12/10 03:34:53;;;;;;;;;50.25;40.25;;;;;;;;5079140;28;51089;-56
2022/12/10 03:37:37;;;;;;;;;53.75;43.00;;;;;;;;5076594;28;50998;-57
2022/12/10 03:40:24;;;;;;;;;47.00;40.00;;;;;;;;5057247;28;51146;-56
2022/12/10 03:43:08;;;;;;;;;50.25;41.25;;;;;;;;5069562;28;51622;-56
2022/12/10 03:45:52;;;;;;;;;51.00;42.50;;;;;;;;5079155;28;51463;-57
2022/12/10 03:48:37;;;;;;;;;52.75;40.00;;;;;;;;5079631;28;51048;-55
2022/12/10 03:51:21;;;;;;;;;46.75;39.50;;;;;;;;5053322;28;51166;-57
2022/12/10 03:54:06;;;;;;;;;53.00;41.25;;;;;;;;5056655;28;51456;-56
2022/12/10 03:56:50;;;;;;;;;52.50;40.25;;;;;;;;5058692;28;51676;-56
2022/12/10 03:59:34;;;;;;;;;49.25;39.75;;;;;;;;5054771;28;51106;-57
2022/12/10 04:02:19;;;;;;;;;48.00;40.00;;;;;;;;5058319;28;51105;-57
2022/12/10 04:05:04;;;;;;;;;52.00;41.00;;;;;;;;5058488;28;51429;-53
2022/12/10 04:07:49;;;;;;;;;50.25;39.00;;;;;;;;5058746;28;51079;-57
2022/12/10 04:10:36;;;;;;;;;49.75;40.00;;;;;;;;5054037;28;51058;-57
2022/12/10 04:16:27;;;;;;;;;47.50;38.25;;;;;;;;5062281;28;51391;-57
2022/12/10 04:19:13;;;;;;;;;44.50;38.25;;;;;;;;5062384;28;51113;-57
2022/12/10 04:28:02;;;;;;;;;48.25;40.75;;;;;;;;5062265;28;51224;-57
2022/12/10 04:30:47;;;;;;;;;49.25;40.00;;;;;;;;5062066;28;51350;-57
2022/12/10 04:33:31;;;;;;;;;45.50;37.50;;;;;;;;5062261;28;51083;-56
2022/12/10 04:36:16;;;;;;;;;46.75;39.75;;;;;;;;5061667;28;51132;-57
2022/12/10 04:39:01;;;;;;;;;49.25;36.25;;;;;;;;5058800;28;51186;-57
2022/12/10 04:41:46;;;;;;;;;48.75;40.50;;;;;;;;5060650;28;51201;-55
2022/12/10 04:44:30;;;;;;;;;46.50;36.50;;;;;;;;5061475;28;51165;-57
2022/12/10 04:47:15;;;;;;;;;49.75;39.75;;;;;;;;5061602;28;51244;-57
2022/12/10 04:49:59;;;;;;;;;46.00;38.25;;;;;;;;5061638;28;51300;-58
2022/12/10 04:52:43;;;;;;;;;51.50;38.00;;;;;;;;5057004;28;51105;-56
2022/12/10 04:55:28;;;;;;;;;46.25;36.50;;;;;;;;5061441;28;51422;-56
2022/12/10 04:58:12;;;;;;;;;47.75;37.00;;;;;;;;5061672;28;51706;-57
2022/12/10 05:01:04;;;;;;;;;45.25;35.25;;;;;;;;5060722;27;51015;-56
2022/12/10 05:03:48;;;;;;;;;46.75;39.00;;;;;;;;5061733;28;51073;-57
2022/12/10 05:06:33;;;;;;;;;49.25;39.25;;;;;;;;5061106;28;50956;-56
2022/12/10 05:09:17;;;;;;;;;47.00;39.25;;;;;;;;5061277;28;51123;-56
2022/12/10 05:12:01;;;;;;;;;49.00;41.00;;;;;;;;5061478;28;51190;-57
2022/12/10 05:14:46;;;;;;;;;51.00;40.25;;;;;;;;5061247;28;51065;-57
2022/12/10 05:17:30;;;;;;;;;55.75;43.50;;;;;;;;5061177;28;51106;-59
2022/12/10 05:20:15;;;;;;;;;55.25;39.75;;;;;;;;5060931;28;51455;-56
2022/12/10 05:26:06;;;;;;;;;56.00;44.00;;;;;;;;5060845;28;51160;-56
2022/12/10 05:28:55;;;;;;;;;55.00;43.75;;;;;;;;5059879;28;51101;-56
2022/12/10 05:31:39;;;;;;;;;51.50;39.25;;;;;;;;5065160;27;51570;-56
2022/12/10 05:34:24;;;;;;;;;50.50;41.00;;;;;;;;5081222;27;51175;-55
2022/12/10 05:37:08;;;;;;;;;68.25;47.50;;;;;;;;5081280;27;51061;-57
2022/12/10 05:39:53;;;;;;;;;65.00;46.75;;;;;;;;5057511;28;51186;-57
2022/12/10 05:42:37;;;;;;;;;64.25;45.00;;;;;;;;5060664;28;50942;-56
2022/12/10 05:45:21;;;;;;;;;56.75;43.75;;;;;;;;5062813;27;51441;-56
2022/12/10 05:48:06;;;;;;;;;54.00;40.50;;;;;;;;5057544;28;51659;-56
2022/12/10 05:50:50;;;;;;;;;59.25;45.00;;;;;;;;5060291;28;51067;-56
2022/12/10 05:53:35;;;;;;;;;54.00;42.75;;;;;;;;5060622;28;51024;-57
2022/12/10 05:56:21;;;;;;;;;56.50;44.75;;;;;;;;5060270;28;51439;-56
2022/12/10 05:59:06;;;;;;;;;61.50;48.75;;;;;;;;5056882;28;51062;-57
2022/12/10 06:01:50;;;;;;;;;59.50;48.00;;;;;;;;5062360;27;51051;-57
2022/12/10 06:04:34;;;;;;;;;62.00;47.00;;;;;;;;5054124;28;51077;-57
2022/12/10 06:07:19;;;;;;;;;65.50;51.00;;;;;;;;5060301;28;51103;-56
2022/12/10 06:10:03;;;;;;;;;65.25;51.00;;;;;;;;5059804;28;51537;-56
2022/12/10 06:12:47;;;;;;;;;67.75;52.00;;;;;;;;5060360;28;51651;-57
2022/12/10 06:15:32;;;;;;;;;65.00;51.25;;;;;;;;5060127;28;51066;-56
2022/12/10 06:18:16;;;;;;;;;67.75;52.75;;;;;;;;5060378;28;51055;-57
2022/12/10 06:21:08;;;;;;;;;62.00;49.25;;;;;;;;5061873;27;51092;-57
2022/12/10 06:23:53;;;;;;;;;63.25;49.50;;;;;;;;5060040;28;51178;-56
2022/12/10 06:26:37;;;;;;;;;64.00;50.50;;;;;;;;5060016;28;51161;-55
2022/12/10 06:29:21;;;;;;;;;62.00;47.75;;;;;;;;5059803;28;51042;-57
2022/12/10 06:32:06;;;;;;;;;61.50;48.25;;;;;;;;5060239;28;51091;-57
2022/12/10 06:34:50;;;;;;;;;64.50;48.25;;;;;;;;5053744;28;51575;-57
2022/12/10 06:37:35;;;;;;;;;61.50;49.50;;;;;;;;5057301;28;51453;-57
2022/12/10 06:40:19;;;;;;;;;63.75;48.00;;;;;;;;5057942;28;51393;-57
2022/12/10 06:43:03;;;;;;;;;63.50;50.00;;;;;;;;5060225;28;51024;-58
2022/12/10 06:45:48;;;;;;;;;65.50;50.50;;;;;;;;5072912;27;51057;-56
2022/12/10 06:48:32;;;;;;;;;67.25;52.75;;;;;;;;5079793;27;51175;-57
2022/12/10 06:51:20;;;;;;;;;73.00;58.25;;;;;;;;5068490;27;51584;-57
2022/12/10 06:54:04;;;;;;;;;76.50;61.50;;;;;;;;5053723;28;51141;-57
2022/12/10 06:56:48;;;;;;;;;74.50;60.75;;;;;;;;5059703;28;51125;-57
2022/12/10 06:59:33;;;;;;;;;72.00;57.25;;;;;;;;5059271;28;51409;-55
2022/12/10 07:02:17;;;;;;;;;66.00;50.25;;;;;;;;5059580;28;51097;-57
2022/12/10 07:05:01;;;;;;;;;63.00;51.00;;;;;;;;5064527;27;51429;-57
2022/12/10 07:07:46;;;;;;;;;65.00;48.50;;;;;;;;5079863;27;51110;-57
2022/12/10 07:10:30;;;;;;;;;63.75;49.50;;;;;;;;5079438;28;51415;-57
2022/12/10 07:13:15;;;;;;;;;59.75;49.00;;;;;;;;5079783;28;51184;-58
2022/12/10 07:15:59;;;;;;;;;66.00;51.50;;;;;;;;5079396;28;51648;-56
2022/12/10 07:18:44;;;;;;;;;63.00;48.00;;;;;;;;5079431;28;50964;-56
2022/12/10 07:21:29;;;;;;;;;66.25;50.00;;;;;;;;5066458;28;51086;-57
2022/12/10 07:24:15;;;;;;;;;66.00;51.00;;;;;;;;5056239;28;51545;-57
2022/12/10 07:26:59;;;;;;;;;65.00;50.75;;;;;;;;5055974;28;51156;-57
2022/12/10 07:29:44;;;;;;;;;61.50;47.25;;;;;;;;5059320;28;51931;-57
2022/12/10 07:32:28;;;;;;;;;60.75;47.25;;;;;;;;5059455;28;51180;-58
2022/12/10 07:35:12;;;;;;;;;59.50;46.50;;;;;;;;5062385;28;51114;-57
2022/12/10 07:37:57;;;;;;;;;66.00;49.00;;;;;;;;5066288;28;51072;-58
2022/12/10 07:40:42;;;;;;;;;59.50;47.75;;;;;;;;5056950;28;51652;-57
2022/12/10 07:43:26;;;;;;;;;65.25;49.75;;;;;;;;5057448;28;51048;-58
2022/12/10 07:46:13;;;;;;;;;60.00;47.00;;;;;;;;5059158;28;51074;-58
2022/12/10 07:48:59;;;;;;;;;65.50;50.25;;;;;;;;5060773;28;51248;-57
2022/12/10 07:51:44;;;;;;;;;59.75;47.00;;;;;;;;5062742;28;51705;-58
2022/12/10 07:54:29;;;;;;;;;59.00;47.50;;;;;;;;5062745;28;51023;-58
2022/12/10 07:57:14;;;;;;;;;55.75;45.00;;;;;;;;5062992;28;51058;-55
2022/12/10 07:59:58;;;;;;;;;54.50;43.25;;;;;;;;5062364;28;51383;-57
2022/12/10 08:02:43;;;;;;;;;57.50;43.00;;;;;;;;5062671;27;51236;-58
2022/12/10 08:05:27;;;;;;;;;55.25;43.25;;;;;;;;5062358;28;51092;-57
2022/12/10 08:08:12;;;;;;;;;53.25;42.25;;;;;;;;5072422;27;51047;-55
2022/12/10 08:10:59;;;;;;;;;57.25;44.50;;;;;;;;5064751;27;51432;-56
2022/12/10 08:13:44;;;;;;;;;51.50;40.25;;;;;;;;5060788;28;51143;-56
2022/12/10 08:16:29;;;;;;;;;51.25;40.50;;;;;;;;5065600;27;51686;-55
2022/12/10 08:19:13;;;;;;;;;52.00;41.75;;;;;;;;5062338;28;51164;-55
2022/12/10 08:21:57;;;;;;;;;52.00;41.25;;;;;;;;5061654;28;51114;-56
2022/12/10 08:24:42;;;;;;;;;53.00;39.50;;;;;;;;5063514;27;51566;-55
2022/12/10 08:27:27;;;;;;;;;47.00;39.25;;;;;;;;5081947;27;51134;-55
2022/12/10 08:30:11;;;;;;;;;46.00;38.50;;;;;;;;5082738;27;51530;-57
2022/12/10 08:32:56;;;;;;;;;49.00;39.50;;;;;;;;5061043;27;51089;-57
2022/12/10 08:35:41;;;;;;;;;48.25;39.00;;;;;;;;5061791;28;51145;-57
2022/12/10 08:38:26;;;;;;;;;47.00;37.75;;;;;;;;5059409;28;51122;-58
2022/12/10 08:41:12;;;;;;;;;45.25;37.00;;;;;;;;5061317;28;51622;-58
2022/12/10 08:43:57;;;;;;;;;48.75;41.00;;;;;;;;5059573;28;51147;-56
2022/12/10 08:46:41;;;;;;;;;50.00;41.75;;;;;;;;5060096;28;51142;-58
2022/12/10 08:49:25;;;;;;;;;45.50;37.25;;;;;;;;5060688;28;51503;-58
2022/12/10 08:52:10;;;;;;;;;52.00;41.00;;;;;;;;5060430;28;51431;-55
2022/12/10 08:54:55;;;;;;;;;57.00;44.50;;;;;;;;5058211;28;51646;-58
2022/12/10 08:57:39;;;;;;;;;48.50;38.25;;;;;;;;5054476;28;51296;-57
2022/12/10 09:00:24;;;;;;;;;48.00;37.25;;;;;;;;5061516;28;51111;-58
2022/12/10 09:03:08;;;;;;;;;47.75;36.50;;;;;;;;5061510;28;51054;-58
2022/12/10 09:05:53;;;;;;;;;42.75;35.75;;;;;;;;5078776;27;51632;-56
2022/12/10 09:08:38;;;;;;;;;52.00;40.50;;;;;;;;5081633;27;51160;-56
2022/12/10 09:11:27;;;;;;;;;43.75;34.50;;;;;;;;5081420;27;51058;-57
2022/12/10 09:14:12;;;;;;;;;56.25;44.25;;;;;;;;5074094;27;51075;-57
2022/12/10 09:16:56;;;;;;;;;34.50;31.00;;;;;;;;5061535;28;51078;-57
2022/12/10 09:19:41;;;;;;;;;41.25;32.75;;;;;;;;5060764;28;51140;-58
2022/12/10 09:22:25;;;;;;;;;38.50;31.00;;;;;;;;5061047;28;51194;-57
2022/12/10 09:25:09;;;;;;;;;42.75;32.00;;;;;;;;5061135;28;51098;-57
2022/12/10 09:27:54;;;;;;;;;35.25;31.00;;;;;;;;5059466;28;51122;-56
2022/12/10 09:30:38;;;;;;;;;32.25;28.25;;;;;;;;5060867;28;51477;-57
2022/12/10 09:33:23;;;;;;;;;30.75;28.00;;;;;;;;5060717;28;51094;-57
2022/12/10 09:36:08;;;;;;;;;37.00;29.75;;;;;;;;5061197;28;51126;-57
2022/12/10 09:38:53;;;;;;;;;35.75;30.00;;;;;;;;5058006;28;51521;-56
2022/12/10 09:41:56;;;;;;;;;39.25;30.75;;;;;;;;5059653;28;51168;-57
2022/12/10 09:44:40;;;;;;;;;39.75;31.50;;;;;;;;5058488;28;51238;-57
2022/12/10 09:47:30;;;;;;;;;39.50;29.00;;;;;;;;5059720;28;51138;-56
2022/12/10 09:50:29;;;;;;;;;37.50;31.25;;;;;;;;5058423;28;51145;-57
2022/12/10 09:53:15;;;;;;;;;38.75;31.00;;;;;;;;5060451;28;51101;-57
2022/12/10 09:55:59;;;;;;;;;30.00;27.75;;;;;;;;5058913;28;51553;-57
2022/12/10 09:58:44;;;;;;;;;35.00;29.25;;;;;;;;5061134;27;50991;-56
2022/12/10 10:01:29;;;;;;;;;28.75;26.00;;;;;;;;5060677;28;51052;-56
2022/12/10 10:04:14;;;;;;;;;24.75;24.25;;;;;;;;5060358;28;51308;-57
2022/12/10 10:06:59;;;;;;;;;27.25;26.00;;;;;;;;5059897;28;51405;-56
2022/12/10 10:09:43;;;;;;;;;28.25;26.75;;;;;;;;5060341;28;51185;-57
2022/12/10 10:12:28;;;;;;;;;32.50;27.25;;;;;;;;5059676;28;51117;-55
2022/12/10 10:15:14;;;;;;;;;26.25;24.25;;;;;;;;5058710;28;51453;-55
2022/12/10 10:18:01;;;;;;;;;31.00;25.25;;;;;;;;5059974;28;51261;-56
2022/12/10 10:20:46;;;;;;;;;34.00;30.00;;;;;;;;5058342;28;51453;-57
2022/12/10 10:23:30;;;;;;;;;29.75;26.00;;;;;;;;5059712;28;51057;-56
2022/12/10 10:26:15;;;;;;;;;28.50;25.00;;;;;;;;5060251;28;51150;-56
2022/12/10 10:29:04;;;;;;;;;29.25;27.25;;;;;;;;5059699;28;51374;-58
2022/12/10 10:32:09;;;;;;;;;29.25;25.00;;;;;;;;5058550;28;51039;-56
2022/12/10 10:34:58;;;;;;;;;36.75;30.75;;;;;;;;5058607;28;51070;-58
2022/12/10 10:37:42;;;;;;;;;34.25;29.75;;;;;;;;5052622;28;51249;-58
2022/12/10 10:40:33;;;;;;;;;32.75;30.25;;;;;;;;5052700;28;51180;-58
2022/12/10 10:43:25;;;;;;;;;39.50;31.75;;;;;;;;5045583;28;53136;-57
2022/12/10 10:46:17;;;;;;;;;54.25;44.75;;;;;;;;5059809;28;51024;-58
2022/12/10 10:49:24;;;;;;;;;43.25;34.75;;;;;;;;5076926;27;51230;-58
2022/12/10 10:52:15;;;;;;;;;41.75;34.50;;;;;;;;5079897;27;51011;-57
2022/12/10 10:55:00;;;;;;;;;30.00;26.50;;;;;;;;5079632;27;51520;-56
2022/12/10 10:57:44;;;;;;;;;48.50;38.50;;;;;;;;5079366;27;51067;-57
2022/12/10 11:00:29;;;;;;;;;29.75;27.00;;;;;;;;5080179;27;51035;-58
2022/12/10 11:03:13;;;;;;;;;32.25;28.75;;;;;;;;5079810;27;51011;-57
2022/12/10 11:05:59;;;;;;;;;25.75;23.75;;;;;;;;5079075;27;51461;-57
2022/12/10 11:08:44;;;;;;;;;23.75;21.25;;;;;;;;5058678;28;51370;-58
2022/12/10 11:11:40;;;;;;;;;32.75;27.75;;;;;;;;5057417;28;51472;-57
2022/12/10 11:14:27;;;;;;;;;32.50;26.50;;;;;;;;5058530;28;51221;-57
2022/12/10 11:17:11;;;;;;;;;28.50;27.00;;;;;;;;5059281;28;51278;-58
2022/12/10 11:20:14;;;;;;;;;27.75;24.75;;;;;;;;5058833;28;51912;-57
2022/12/10 11:22:59;;;;;;;;;31.50;27.00;;;;;;;;5060601;28;51115;-57
2022/12/10 11:25:43;;;;;;;;;28.50;26.00;;;;;;;;5063339;28;51555;-58
2022/12/10 11:28:41;;;;;;;;;30.50;26.00;;;;;;;;5059683;28;51184;-58
2022/12/10 11:31:26;;;;;;;;;22.50;19.75;;;;;;;;5063008;28;51055;-56
2022/12/10 11:34:16;;;;;;;;;31.75;28.50;;;;;;;;5063209;28;51268;-56
2022/12/10 11:37:19;;;;;;;;;27.75;25.25;;;;;;;;5062909;28;51183;-55
2022/12/10 11:40:21;;;;;;;;;28.00;25.50;;;;;;;;5060535;28;51098;-57
2022/12/10 11:43:06;;;;;;;;;30.00;26.50;;;;;;;;5061601;28;51105;-57
2022/12/10 11:45:53;;;;;;;;;28.00;24.75;;;;;;;;5058781;28;51332;-57
2022/12/10 11:48:47;;;;;;;;;29.00;25.50;;;;;;;;5063028;28;51126;-56
2022/12/10 11:51:37;;;;;;;;;31.00;26.50;;;;;;;;5063197;28;51050;-57
2022/12/10 11:54:34;;;;;;;;;25.25;23.75;;;;;;;;5062888;28;51108;-57
2022/12/10 11:57:35;;;;;;;;;27.25;25.00;;;;;;;;5062384;28;51502;-57
2022/12/10 12:00:27;;;;;;;;;28.25;24.50;;;;;;;;5062766;28;51141;-56
2022/12/10 12:03:32;;;;;;;;;26.00;23.00;;;;;;;;5062754;28;51043;-56
2022/12/10 12:06:36;;;;;;;;;23.50;23.25;;;;;;;;5060966;28;51088;-56
2022/12/10 12:09:21;;;;;;;;;25.75;23.75;;;;;;;;5061554;28;51198;-55
2022/12/10 12:12:20;;;;;;;;;31.25;26.00;;;;;;;;5058681;28;51120;-56
2022/12/10 12:15:16;;;;;;;;;23.75;22.00;;;;;;;;5063713;27;51214;-57
2022/12/10 12:18:05;;;;;;;;;24.00;21.25;;;;;;;;5068284;27;51497;-57
2022/12/10 12:20:53;;;;;;;;;33.50;25.50;;;;;;;;5076986;27;50939;-57
2022/12/10 12:23:54;;;;;;;;;32.50;26.50;;;;;;;;5061806;28;51437;-57
2022/12/10 12:26:39;;;;;;;;;23.50;18.25;;;;;;;;5069268;27;51215;-57
2022/12/10 12:29:41;;;;;;;;;30.50;23.75;;;;;;;;5082226;27;51351;-56
2022/12/10 12:32:29;;;;;;;;;22.75;21.00;;;;;;;;5081852;27;51156;-55
2022/12/10 12:35:21;;;;;;;;;22.00;19.50;;;;;;;;5081798;27;51108;-57
2022/12/10 12:38:23;;;;;;;;;23.25;21.75;;;;;;;;5074019;27;51220;-56
2022/12/10 12:41:13;;;;;;;;;24.75;21.25;;;;;;;;5076876;27;51173;-57
2022/12/10 12:43:58;;;;;;;;;25.75;22.25;;;;;;;;5061190;28;51068;-56
2022/12/10 12:46:46;;;;;;;;;25.25;21.50;;;;;;;;5061878;28;51116;-57
2022/12/10 12:49:32;;;;;;;;;21.75;20.00;;;;;;;;5061611;28;51380;-57
2022/12/10 12:52:34;;;;;;;;;22.75;19.75;;;;;;;;5061914;28;51031;-56
2022/12/10 12:55:22;;;;;;;;;20.75;19.25;;;;;;;;5061801;28;51400;-55
2022/12/10 12:58:26;;;;;;;;;18.75;17.75;;;;;;;;5061344;28;51073;-56
2022/12/10 13:01:20;;;;;;;;;19.25;17.50;;;;;;;;5061738;28;51417;-55
2022/12/10 13:04:05;;;;;;;;;22.75;21.25;;;;;;;;5061568;28;51550;-56
2022/12/10 13:07:08;;;;;;;;;22.75;17.50;;;;;;;;5058044;28;51073;-57
2022/12/10 13:10:09;;;;;;;;;26.00;21.00;;;;;;;;5068368;27;51097;-55
2022/12/10 13:13:07;;;;;;;;;25.00;23.25;;;;;;;;5062041;27;51123;-57
2022/12/10 13:15:51;;;;;;;;;18.25;17.75;;;;;;;;5060611;28;51134;-56
2022/12/10 13:18:38;;;;;;;;;20.00;17.00;;;;;;;;5061086;28;51074;-56
2022/12/10 13:21:27;;;;;;;;;20.75;15.75;;;;;;;;5061021;28;51402;-56
2022/12/10 13:24:12;;;;;;;;;25.00;21.25;;;;;;;;5059820;27;51023;-56
2022/12/10 13:27:09;;;;;;;;;23.00;20.25;;;;;;;;5072661;27;51318;-57
2022/12/10 13:29:56;;;;;;;;;25.00;19.25;;;;;;;;5057746;28;51197;-57
2022/12/10 13:32:41;;;;;;;;;18.50;17.75;;;;;;;;5062058;28;51406;-56
2022/12/10 13:35:29;;;;;;;;;19.75;17.25;;;;;;;;5060547;28;51105;-56
2022/12/10 13:38:19;;;;;;;;;23.75;19.00;;;;;;;;5060703;28;51002;-56
2022/12/10 13:44:31;;;;;;;;;19.25;18.50;;;;;;;;5060374;28;51058;-56
2022/12/10 13:47:27;;;;;;;;;26.25;23.00;;;;;;;;5053703;28;51473;-57
2022/12/10 13:50:14;;;;;;;;;21.75;20.25;;;;;;;;5060258;28;51078;-57
2022/12/10 13:53:17;;;;;;;;;18.75;17.50;;;;;;;;5059960;28;51114;-55
2022/12/10 13:56:07;;;;;;;;;24.25;20.75;;;;;;;;5059965;28;51450;-56
2022/12/10 13:59:01;;;;;;;;;24.75;20.50;;;;;;;;5068776;27;51147;-55
2022/12/10 14:01:45;;;;;;;;;23.75;18.25;;;;;;;;5058716;28;51196;-56
2022/12/10 14:04:48;;;;;;;;;24.75;20.50;;;;;;;;5060457;28;51153;-57
2022/12/10 14:07:33;;;;;;;;;20.75;20.25;;;;;;;;5057643;28;51457;-57
2022/12/10 14:10:18;;;;;;;;;27.75;20.00;;;;;;;;5058318;28;51100;-57
2022/12/10 14:13:04;;;;;;;;;22.00;19.50;;;;;;;;5059621;28;51281;-57
2022/12/10 14:15:54;;;;;;;;;25.00;21.50;;;;;;;;5059426;28;51206;-56
2022/12/10 14:18:38;;;;;;;;;20.25;17.50;;;;;;;;5059253;28;51421;-57
2022/12/10 14:21:24;;;;;;;;;25.50;22.50;;;;;;;;5059721;28;51032;-57
2022/12/10 14:24:28;;;;;;;;;23.75;21.50;;;;;;;;5059766;28;51075;-54
2022/12/10 14:27:12;;;;;;;;;16.50;16.25;;;;;;;;5058582;28;51062;-55
2022/12/10 14:30:02;;;;;;;;;22.00;17.50;;;;;;;;5060271;28;51020;-56
2022/12/10 14:32:46;;;;;;;;;23.00;19.75;;;;;;;;5059498;28;51397;-56
2022/12/10 14:35:31;;;;;;;;;29.00;21.25;;;;;;;;5042522;28;51365;-56
2022/12/10 14:38:20;;;;;;;;;22.75;19.50;;;;;;;;5059397;28;51178;-57
2022/12/10 14:41:04;;;;;;;;;29.25;21.50;;;;;;;;5059550;28;51062;-55
2022/12/10 14:43:48;;;;;;;;;24.75;20.75;;;;;;;;5059684;28;50936;-54
2022/12/10 14:46:33;;;;;;;;;25.25;19.00;;;;;;;;5056052;28;51062;-55
2022/12/10 14:49:21;;;;;;;;;21.50;20.25;;;;;;;;5058999;28;51181;-56
2022/12/10 14:52:10;;;;;;;;;25.25;21.25;;;;;;;;5059252;28;51293;-57
2022/12/10 14:54:54;;;;;;;;;23.75;20.75;;;;;;;;5055909;28;51032;-56
2022/12/10 14:57:42;;;;;;;;;25.00;22.00;;;;;;;;5058398;28;51484;-55
2022/12/10 15:00:26;;;;;;;;;27.50;24.75;;;;;;;;5070683;27;51020;-56
2022/12/10 15:03:16;;;;;;;;;25.00;22.50;;;;;;;;5056392;28;51168;-54
2022/12/10 15:06:01;;;;;;;;;26.00;21.00;;;;;;;;5056596;28;51190;-54
2022/12/10 15:08:49;;;;;;;;;31.75;27.50;;;;;;;;5058520;28;51161;-56
2022/12/10 15:11:33;;;;;;;;;22.75;22.50;;;;;;;;5055752;28;51225;-55
2022/12/10 15:14:19;;;;;;;;;29.75;24.00;;;;;;;;5058698;28;51186;-57
2022/12/10 15:17:04;;;;;;;;;25.50;22.00;;;;;;;;5059793;28;51201;-55
2022/12/10 15:19:50;;;;;;;;;25.50;24.00;;;;;;;;5058271;28;51240;-57
2022/12/10 15:22:35;;;;;;;;;26.00;22.75;;;;;;;;5054702;28;51534;-57
2022/12/10 15:25:28;;;;;;;;;24.75;21.75;;;;;;;;5057223;28;51157;-57
2022/12/10 15:28:42;;;;;;;;;23.00;19.75;;;;;;;;5057165;28;51476;-52
2022/12/10 15:31:26;;;;;;;;;29.00;26.00;;;;;;;;5047448;28;51142;-55
2022/12/10 15:34:13;;;;;;;;;29.25;25.75;;;;;;;;5059538;28;51434;-55
2022/12/10 15:37:01;;;;;;;;;24.25;22.25;;;;;;;;5059038;28;51923;-56
2022/12/10 15:39:47;;;;;;;;;30.75;27.25;;;;;;;;5059404;28;51384;-54
2022/12/10 15:42:34;;;;;;;;;31.00;26.75;;;;;;;;5059236;28;51166;-55
2022/12/10 15:45:38;;;;;;;;;30.25;28.50;;;;;;;;5059251;28;51078;-54
2022/12/10 15:48:25;;;;;;;;;36.75;26.75;;;;;;;;5058861;28;51489;-54
2022/12/10 15:51:09;;;;;;;;;29.75;26.50;;;;;;;;5059035;28;51304;-57
2022/12/10 15:53:54;;;;;;;;;30.50;28.50;;;;;;;;5059122;28;51222;-56
2022/12/10 15:56:38;;;;;;;;;27.25;26.25;;;;;;;;5059076;28;51057;-55
2022/12/10 15:59:23;;;;;;;;;26.50;23.50;;;;;;;;5059330;28;51089;-55
2022/12/10 16:02:22;;;;;;;;;31.75;28.00;;;;;;;;5058931;28;51517;-55
2022/12/10 16:05:18;;;;;;;;;35.00;28.50;;;;;;;;5058852;28;51516;-55
2022/12/10 16:08:15;;;;;;;;;30.00;28.00;;;;;;;;5053050;28;51071;-54
2022/12/10 16:11:01;;;;;;;;;28.75;26.25;;;;;;;;5062499;28;52219;-56
2022/12/10 16:13:48;;;;;;;;;27.25;22.25;;;;;;;;5062674;28;51597;-56
2022/12/10 16:16:32;;;;;;;;;24.75;22.00;;;;;;;;5062496;28;51220;-55
2022/12/10 16:19:17;;;;;;;;;29.00;23.00;;;;;;;;5062378;28;51511;-56
2022/12/10 16:22:02;;;;;;;;;26.50;19.50;;;;;;;;5059187;28;51238;-56
2022/12/10 16:24:47;;;;;;;;;30.25;25.75;;;;;;;;5058824;28;51188;-56
2022/12/10 16:27:32;;;;;;;;;32.25;29.25;;;;;;;;5059041;28;51501;-54